createdAt,value
2022-11-03T00:00:49.828Z,97647.78
2022-11-03T00:02:52.407Z,97642.59
2022-11-03T00:04:55.006Z,97642.59
2022-11-03T00:06:58.923Z,97645.94
2022-11-03T00:09:03.247Z,97652.91
2022-11-03T00:11:08.482Z,97650.31
2022-11-03T00:13:11.036Z,97649.41
2022-11-03T00:15:13.611Z,97646.81
2022-11-03T00:17:18.363Z,97649.31
2022-11-03T00:19:21.368Z,97642.34
2022-11-03T00:21:26.801Z,97646.72
2022-11-03T00:23:33.377Z,97637.22
2022-11-03T00:25:36.003Z,97634.56
2022-11-03T00:27:38.590Z,97631.13
2022-11-03T00:29:41.184Z,97629.50
2022-11-03T00:31:45.835Z,97624.34
2022-11-03T00:33:49.276Z,97620.06
2022-11-03T00:35:50.851Z,97621.78
2022-11-03T00:37:53.415Z,97622.78
2022-11-03T00:39:57.502Z,97619.41
2022-11-03T00:42:00.078Z,97621.13
2022-11-03T00:44:02.800Z,97612.59
2022-11-03T00:46:06.441Z,97604.81
2022-11-03T00:48:26.735Z,97600.50
2022-11-03T00:50:29.269Z,97594.69
2022-11-03T00:52:31.823Z,97586.00
2022-11-03T00:54:34.367Z,97591.97
2022-11-03T00:56:39.804Z,97580.78
2022-11-03T00:58:43.168Z,97586.03
2022-11-03T01:00:45.753Z,97583.56
2022-11-03T01:02:48.357Z,97582.81
2022-11-03T01:05:23.032Z,97577.66
2022-11-03T01:07:25.578Z,97581.06
2022-11-03T01:09:30.462Z,97572.50
2022-11-03T01:11:44.207Z,97569.91
2022-11-03T01:13:48.804Z,97562.19
2022-11-03T01:15:51.353Z,97574.38
2022-11-03T01:17:54.186Z,97574.41
2022-11-03T01:19:56.974Z,97569.28
2022-11-03T01:21:59.603Z,97563.16
2022-11-03T01:24:02.758Z,97565.78
2022-11-03T01:26:06.428Z,97563.16
2022-11-03T01:28:08.972Z,97551.22
2022-11-03T01:30:13.514Z,97545.22
2022-11-03T01:32:16.237Z,97550.50
2022-11-03T01:34:21.024Z,97540.06
2022-11-03T01:36:22.710Z,97546.06
2022-11-03T01:38:25.091Z,97554.91
2022-11-03T01:40:27.806Z,97556.69
2022-11-03T01:42:30.385Z,97547.22
2022-11-03T01:44:35.826Z,97544.69
2022-11-03T01:46:43.978Z,97539.47
2022-11-03T01:48:50.797Z,97538.75
2022-11-03T01:50:53.907Z,97531.69
2022-11-03T01:52:59.654Z,97530.00
2022-11-03T01:55:05.555Z,97531.72
2022-11-03T01:57:14.723Z,97534.53
2022-11-03T01:59:19.387Z,97532.03
2022-11-03T02:01:22.257Z,97530.22
2022-11-03T02:03:29.283Z,97516.47
2022-11-03T02:05:32.032Z,97518.25
2022-11-03T02:07:39.304Z,97515.69
2022-11-03T02:09:41.923Z,97511.50
2022-11-03T02:12:01.904Z,97515.03
2022-11-03T02:14:04.454Z,97519.31
2022-11-03T02:16:07.588Z,97512.41
2022-11-03T02:18:12.491Z,97513.41
2022-11-03T02:20:18.818Z,97500.50
2022-11-03T02:22:53.264Z,97495.38
2022-11-03T02:25:04.175Z,97501.44
2022-11-03T02:27:08.760Z,97498.78
2022-11-03T02:29:11.389Z,97495.31
2022-11-03T02:31:18.029Z,97497.81
2022-11-03T02:33:39.927Z,97490.00
2022-11-03T02:35:47.917Z,97493.38
2022-11-03T02:37:55.725Z,97491.59
2022-11-03T02:40:02.794Z,97491.56
2022-11-03T02:42:06.240Z,97488.00
2022-11-03T02:44:17.479Z,97485.41
2022-11-03T02:46:20.733Z,97481.06
2022-11-03T02:48:23.303Z,97484.44
2022-11-03T02:50:28.883Z,97472.25
2022-11-03T02:52:37.411Z,97467.94
2022-11-03T02:54:44.011Z,97471.41
2022-11-03T02:56:51.546Z,97467.06
2022-11-03T02:59:02.383Z,97474.00
2022-11-03T03:01:15.688Z,97461.13
2022-11-03T03:03:23.400Z,97449.72
2022-11-03T03:05:31.342Z,97442.00
2022-11-03T03:07:37.016Z,97433.50
2022-11-03T03:09:44.307Z,97418.91
2022-11-03T03:11:51.909Z,97421.50
2022-11-03T03:13:54.471Z,97412.00
2022-11-03T03:16:09.584Z,97416.38
2022-11-03T03:18:21.134Z,97421.56
2022-11-03T03:20:27.955Z,97419.00
2022-11-03T03:22:40.861Z,97416.44
2022-11-03T03:24:49.017Z,97417.25
2022-11-03T03:26:53.974Z,97423.31
2022-11-03T03:29:00.327Z,97412.94
2022-11-03T03:31:10.866Z,97404.34
2022-11-03T03:33:14.677Z,97412.00
2022-11-03T03:35:21.187Z,97400.84
2022-11-03T03:37:25.803Z,97393.91
2022-11-03T03:39:32.709Z,97393.06
2022-11-03T03:41:36.988Z,97397.50
2022-11-03T03:43:41.559Z,97398.59
2022-11-03T03:45:46.982Z,97395.19
2022-11-03T03:47:54.990Z,97392.69
2022-11-03T03:50:00.390Z,97386.69
2022-11-03T03:52:03.750Z,97381.53
2022-11-03T03:54:06.511Z,97384.16
2022-11-03T03:56:09.412Z,97378.06
2022-11-03T03:58:13.739Z,97372.03
2022-11-03T04:00:16.968Z,97371.16
2022-11-03T04:02:19.717Z,97356.59
2022-11-03T04:04:23.797Z,97363.53
2022-11-03T04:06:26.354Z,97358.28
2022-11-03T04:08:28.871Z,97350.66
2022-11-03T04:10:31.443Z,97355.03
2022-11-03T04:12:51.330Z,97354.38
2022-11-03T04:15:11.571Z,97342.31
2022-11-03T04:17:38.202Z,97342.44
2022-11-03T04:19:59.706Z,97342.56
2022-11-03T04:22:17.237Z,97334.81
2022-11-03T04:24:19.776Z,97328.78
2022-11-03T04:26:23.878Z,97328.75
2022-11-03T04:28:26.943Z,97332.16
2022-11-03T04:30:29.577Z,97333.03
2022-11-03T04:32:32.098Z,97324.47
2022-11-03T04:34:34.613Z,97316.66
2022-11-03T04:36:38.580Z,97321.06
2022-11-03T04:38:41.172Z,97321.09
2022-11-03T04:40:49.125Z,97318.66
2022-11-03T04:42:55.510Z,97312.63
2022-11-03T04:45:01.947Z,97314.50
2022-11-03T04:47:10.784Z,97309.31
2022-11-03T04:49:21.598Z,97302.31
2022-11-03T04:51:27.439Z,97301.56
2022-11-03T04:53:34.615Z,97307.63
2022-11-03T04:55:37.195Z,97304.22
2022-11-03T04:57:40.577Z,97289.50
2022-11-03T04:59:46.127Z,97298.22
2022-11-03T05:01:49.049Z,97291.31
2022-11-03T05:03:53.715Z,97288.75
2022-11-03T05:05:56.698Z,97288.69
2022-11-03T05:08:00.231Z,97282.53
2022-11-03T05:10:06.794Z,97281.69
2022-11-03T05:12:10.420Z,97273.97
2022-11-03T05:14:17.004Z,97268.81
2022-11-03T05:16:21.131Z,97271.34
2022-11-03T05:18:28.154Z,97268.88
2022-11-03T05:20:36.164Z,97277.50
2022-11-03T05:22:39.415Z,97265.44
2022-11-03T05:24:42.430Z,97271.47
2022-11-03T05:26:46.519Z,97269.94
2022-11-03T05:28:53.370Z,97263.88
2022-11-03T05:30:56.408Z,97269.06
2022-11-03T05:32:59.385Z,97256.97
2022-11-03T05:35:02.278Z,97252.59
2022-11-03T05:37:26.865Z,97256.09
2022-11-03T05:39:32.096Z,97246.59
2022-11-03T05:41:36.378Z,97243.06
2022-11-03T05:43:40.313Z,97243.06
2022-11-03T05:45:43.301Z,97242.22
2022-11-03T05:47:45.882Z,97237.13
2022-11-03T05:49:49.088Z,97239.69
2022-11-03T05:51:51.661Z,97246.63
2022-11-03T05:53:56.652Z,97247.53
2022-11-03T05:56:03.224Z,97238.09
2022-11-03T05:58:15.945Z,97238.13
2022-11-03T06:00:30.389Z,97238.97
2022-11-03T06:02:38.898Z,97233.75
2022-11-03T06:04:41.561Z,97232.88
2022-11-03T06:06:44.110Z,97227.72
2022-11-03T06:08:47.025Z,97222.56
2022-11-03T06:10:51.569Z,97224.28
2022-11-03T06:12:57.385Z,97215.69
2022-11-03T06:14:59.985Z,97211.41
2022-11-03T06:17:07.380Z,97220.97
2022-11-03T06:19:22.171Z,97213.09
2022-11-03T06:21:26.729Z,97208.00
2022-11-03T06:23:29.399Z,97207.25
2022-11-03T06:25:36.224Z,97202.06
2022-11-03T06:27:39.402Z,97198.66
2022-11-03T06:29:42.102Z,97201.25
2022-11-03T06:31:48.572Z,97202.06
2022-11-03T06:33:53.341Z,97202.19
2022-11-03T06:36:00.450Z,97200.50
2022-11-03T06:38:03.056Z,97197.88
2022-11-03T06:40:34.778Z,97197.00
2022-11-03T06:42:39.829Z,97195.19
2022-11-03T06:44:44.826Z,97199.47
2022-11-03T06:46:47.390Z,97186.53
2022-11-03T06:48:50.094Z,97185.66
2022-11-03T06:50:54.785Z,97190.78
2022-11-03T06:52:58.830Z,97192.47
2022-11-03T06:55:22.445Z,97186.31
2022-11-03T06:57:25.036Z,97183.69
2022-11-03T06:59:27.683Z,97180.19
2022-11-03T07:01:32.375Z,97183.53
2022-11-03T07:03:37.867Z,97188.63
2022-11-03T07:05:41.195Z,97187.66
2022-11-03T07:07:45.112Z,97178.84
2022-11-03T07:09:47.795Z,97183.09
2022-11-03T07:11:52.443Z,97173.50
2022-11-03T07:13:58.550Z,97171.69
2022-11-03T07:16:01.372Z,97169.16
2022-11-03T07:18:06.370Z,97162.06
2022-11-03T07:20:14.533Z,97156.72
2022-11-03T07:22:23.024Z,97160.97
2022-11-03T07:24:29.359Z,97157.41
2022-11-03T07:26:34.638Z,97150.41
2022-11-03T07:28:39.775Z,97151.25
2022-11-03T07:30:43.579Z,97147.81
2022-11-03T07:32:47.176Z,97144.28
2022-11-03T07:34:52.007Z,97144.16
2022-11-03T07:36:57.247Z,97145.88
2022-11-03T07:39:02.574Z,97148.38
2022-11-03T07:41:12.745Z,97152.56
2022-11-03T07:43:19.461Z,97144.69
2022-11-03T07:45:39.567Z,97145.44
2022-11-03T07:47:44.917Z,97133.28
2022-11-03T07:49:48.085Z,97130.56
2022-11-03T07:51:51.122Z,97127.13
2022-11-03T07:53:56.163Z,97124.44
2022-11-03T07:56:00.239Z,97120.13
2022-11-03T07:58:19.535Z,97127.19
2022-11-03T08:00:22.739Z,97123.59
2022-11-03T08:02:32.020Z,97124.84
2022-11-03T08:04:36.292Z,97117.41
2022-11-03T08:06:39.031Z,97108.81
2022-11-03T08:08:41.732Z,97106.13
2022-11-03T08:10:44.332Z,97110.34
2022-11-03T08:12:46.934Z,97101.31
2022-11-03T08:14:50.882Z,97093.66
2022-11-03T08:16:53.478Z,97096.06
2022-11-03T08:18:56.076Z,97096.94
2022-11-03T08:20:58.706Z,97097.69
2022-11-03T08:25:23.898Z,97087.00
2022-11-03T08:27:27.570Z,97075.72
2022-11-03T08:29:30.133Z,97094.75
2022-11-03T08:31:34.099Z,97082.63
2022-11-03T08:33:36.803Z,97077.41
2022-11-03T08:35:39.363Z,97077.31
2022-11-03T08:37:41.894Z,97077.09
2022-11-03T08:39:44.439Z,97077.09
2022-11-03T08:41:46.983Z,97066.66
2022-11-03T08:43:49.587Z,97061.38
2022-11-03T08:45:53.788Z,97063.84
2022-11-03T08:47:58.026Z,97063.03
2022-11-03T08:50:01.055Z,97059.47
2022-11-03T08:52:03.653Z,97063.75
2022-11-03T08:54:06.356Z,97057.69
2022-11-03T08:56:12.283Z,97053.41
2022-11-03T08:58:16.286Z,97047.06
2022-11-03T09:00:19.284Z,97047.63
2022-11-03T09:02:21.887Z,97046.03
2022-11-03T09:04:25.879Z,97048.59
2022-11-03T09:06:28.417Z,97057.09
2022-11-03T09:10:53.573Z,97048.22
2022-11-03T09:12:56.660Z,97048.00
2022-11-03T09:14:59.260Z,97040.13
2022-11-03T09:19:06.119Z,97039.31
2022-11-03T09:21:10.050Z,97045.22
2022-11-03T09:23:12.648Z,97042.50
2022-11-03T09:25:15.344Z,97031.13
2022-11-03T09:27:17.982Z,97032.72
2022-11-03T09:29:20.533Z,97033.41
2022-11-03T09:31:24.590Z,97022.88
2022-11-03T09:33:27.145Z,97027.38
2022-11-03T09:35:29.784Z,97014.88
2022-11-03T09:37:33.693Z,97011.34
2022-11-03T09:39:36.251Z,97008.47
2022-11-03T09:41:57.904Z,97012.03
2022-11-03T09:44:02.186Z,97004.13
2022-11-03T09:46:04.737Z,97009.13
2022-11-03T09:48:10.929Z,97011.63
2022-11-03T09:50:16.700Z,97018.50
2022-11-03T09:52:23.865Z,97016.13
2022-11-03T09:54:29.765Z,97011.38
2022-11-03T09:56:32.959Z,97003.66
2022-11-03T09:58:35.600Z,96994.91
2022-11-03T10:00:38.251Z,97000.09
2022-11-03T10:02:43.246Z,96989.69
2022-11-03T10:04:45.807Z,96988.13
2022-11-03T10:06:48.362Z,96989.38
2022-11-03T10:08:51.132Z,96970.25
2022-11-03T10:10:56.052Z,96973.81
2022-11-03T10:13:00.136Z,96973.78
2022-11-03T10:15:02.744Z,96963.38
2022-11-03T10:17:06.435Z,96970.19
2022-11-03T10:19:11.015Z,96964.81
2022-11-03T10:21:17.469Z,96970.81
2022-11-03T10:23:20.059Z,96965.47
2022-11-03T10:25:37.315Z,96962.81
2022-11-03T10:27:41.253Z,96960.22
2022-11-03T10:29:47.348Z,96955.81
2022-11-03T10:31:56.440Z,96953.56
2022-11-03T10:33:59.010Z,96944.94
2022-11-03T10:36:02.987Z,96939.66
2022-11-03T10:38:25.663Z,96934.28
2022-11-03T10:40:50.282Z,96929.75
2022-11-03T10:43:00.357Z,96930.53
2022-11-03T10:45:17.305Z,96918.19
2022-11-03T10:47:33.696Z,96917.13
2022-11-03T10:49:40.828Z,96924.00
2022-11-03T10:51:48.422Z,96917.06
2022-11-03T10:53:51.076Z,96914.16
2022-11-03T10:55:54.005Z,96915.78
2022-11-03T10:57:57.921Z,96917.44
2022-11-03T11:00:02.316Z,96922.44
2022-11-03T11:02:13.742Z,96917.22
2022-11-03T11:04:17.418Z,96906.38
2022-11-03T11:06:22.182Z,96912.53
2022-11-03T11:08:27.540Z,96897.34
2022-11-03T11:10:32.272Z,96895.03
2022-11-03T11:12:35.019Z,96899.28
2022-11-03T11:14:40.324Z,96883.53
2022-11-03T11:16:52.430Z,96882.69
2022-11-03T11:19:04.293Z,96879.13
2022-11-03T11:21:35.723Z,96877.31
2022-11-03T11:23:47.660Z,96865.59
2022-11-03T11:26:15.163Z,96860.44
2022-11-03T11:28:19.945Z,96848.94
2022-11-03T11:31:04.599Z,96848.84
2022-11-03T11:33:23.975Z,96847.63
2022-11-03T11:36:06.393Z,96830.16
2022-11-03T11:38:23.710Z,96823.16
2022-11-03T11:40:56.023Z,96826.38
2022-11-03T11:43:26.079Z,96821.81
2022-11-03T11:46:02.072Z,96806.09
2022-11-03T11:48:19.116Z,96806.03
2022-11-03T11:50:27.976Z,96803.28
2022-11-03T11:52:31.475Z,96799.72
2022-11-03T11:54:34.574Z,96795.38
2022-11-03T11:56:46.028Z,96790.09
2022-11-03T11:58:50.726Z,96776.97
2022-11-03T12:00:56.125Z,96785.44
2022-11-03T12:03:00.765Z,96776.69
2022-11-03T12:05:05.366Z,96771.47
2022-11-03T12:07:13.903Z,96766.13
2022-11-03T12:09:18.706Z,96762.47
2022-11-03T12:11:45.741Z,96759.00
2022-11-03T12:13:51.458Z,96753.69
2022-11-03T12:15:58.331Z,96745.84
2022-11-03T12:18:00.918Z,96745.78
2022-11-03T12:20:46.564Z,96731.88
2022-11-03T12:22:49.138Z,96733.56
2022-11-03T12:24:53.259Z,96730.97
2022-11-03T12:26:55.848Z,96717.03
2022-11-03T12:28:58.392Z,96716.94
2022-11-03T12:31:01.368Z,96713.50
2022-11-03T12:33:04.112Z,96706.44
2022-11-03T12:35:09.465Z,96696.09
2022-11-03T12:37:13.437Z,96708.19
2022-11-03T12:39:16.040Z,96704.69
2022-11-03T12:41:24.765Z,96707.22
2022-11-03T12:43:27.320Z,96706.28
2022-11-03T12:45:29.930Z,96685.31
2022-11-03T12:47:32.472Z,96674.03
2022-11-03T12:49:35.355Z,96680.00
2022-11-03T12:51:37.933Z,96680.00
2022-11-03T12:53:45.153Z,96673.88
2022-11-03T12:55:47.802Z,96666.03
2022-11-03T12:57:50.393Z,96665.97
2022-11-03T12:59:53.190Z,96665.16
2022-11-03T13:01:55.895Z,96665.16
2022-11-03T13:03:58.567Z,96656.38
2022-11-03T13:06:04.310Z,96649.41
2022-11-03T13:08:07.264Z,96643.34
2022-11-03T13:10:11.938Z,96635.44
2022-11-03T13:12:33.020Z,96624.94
2022-11-03T13:14:35.621Z,96622.31
2022-11-03T13:16:38.177Z,96620.50
2022-11-03T13:18:40.740Z,96614.44
2022-11-03T13:20:44.896Z,96605.78
2022-11-03T13:22:47.484Z,96597.97
2022-11-03T13:24:50.094Z,96590.06
2022-11-03T13:26:54.025Z,96592.56
2022-11-03T13:28:56.580Z,96581.22
2022-11-03T13:30:59.220Z,96585.53
2022-11-03T13:33:04.451Z,96572.50
2022-11-03T13:35:12.504Z,96567.28
2022-11-03T13:37:16.438Z,96572.56
2022-11-03T13:39:18.994Z,96573.38
2022-11-03T13:41:21.634Z,96568.19
2022-11-03T13:43:25.733Z,96565.56
2022-11-03T13:45:28.495Z,96561.13
2022-11-03T13:47:44.382Z,96551.53
2022-11-03T13:50:13.145Z,96540.25
2022-11-03T13:52:16.312Z,96534.88
2022-11-03T14:01:28.215Z,96506.09
2022-11-03T14:05:53.532Z,96503.31
2022-11-03T14:07:56.101Z,96497.34
2022-11-03T14:10:02.483Z,96492.72
2022-11-03T14:12:24.986Z,96492.78
2022-11-03T14:14:28.898Z,96485.41
2022-11-03T14:16:31.567Z,96491.66
2022-11-03T14:18:34.167Z,96496.53
2022-11-03T14:20:37.398Z,96489.56
2022-11-03T14:22:40.491Z,96488.03
2022-11-03T14:24:43.099Z,96480.97
2022-11-03T14:26:45.694Z,96470.53
2022-11-03T14:28:48.240Z,96477.78
2022-11-03T14:30:52.192Z,96475.34
2022-11-03T14:32:59.353Z,96472.56
2022-11-03T14:35:02.214Z,96473.72
2022-11-03T14:37:05.014Z,96469.50
2022-11-03T14:39:07.647Z,96470.81
2022-11-03T14:41:27.745Z,96465.41
2022-11-03T14:43:35.002Z,96461.66
2022-11-03T14:45:39.911Z,96456.72
2022-11-03T14:47:46.453Z,96455.53
2022-11-03T14:49:49.430Z,96439.19
2022-11-03T14:51:52.068Z,96435.06
2022-11-03T14:53:54.669Z,96429.16
2022-11-03T14:55:57.263Z,96428.94
2022-11-03T14:57:59.927Z,96425.56
2022-11-03T15:00:02.572Z,96416.44
2022-11-03T15:02:06.057Z,96412.41
2022-11-03T15:04:10.202Z,96411.22
2022-11-03T15:06:13.145Z,96400.59
2022-11-03T15:08:17.422Z,96395.16
2022-11-03T15:10:20.005Z,96394.09
2022-11-03T15:12:22.677Z,96394.25
2022-11-03T15:14:25.246Z,96392.63
2022-11-03T15:16:27.824Z,96378.81
2022-11-03T15:18:30.563Z,96373.78
2022-11-03T15:20:35.515Z,96371.25
2022-11-03T15:25:18.674Z,96368.97
2022-11-03T15:27:23.530Z,96365.50
2022-11-03T15:29:26.200Z,96354.72
2022-11-03T15:31:28.774Z,96343.38
2022-11-03T15:33:31.399Z,96344.66
2022-11-03T15:35:35.411Z,96345.25
2022-11-03T15:37:37.983Z,96340.75
2022-11-03T15:39:40.579Z,96338.91
2022-11-03T15:41:43.312Z,96344.66
2022-11-03T15:43:47.318Z,96343.91
2022-11-03T15:45:49.917Z,96343.91
2022-11-03T15:47:57.301Z,96337.28
2022-11-03T15:50:00.998Z,96337.97
2022-11-03T15:52:05.156Z,96332.25
2022-11-03T15:54:08.161Z,96329.75
2022-11-03T15:56:10.926Z,96325.94
2022-11-03T15:58:13.482Z,96327.50
2022-11-03T16:00:16.714Z,96310.44
2022-11-03T16:02:40.317Z,96301.66
2022-11-03T16:04:42.011Z,96290.91
2022-11-03T16:08:54.333Z,96288.22
2022-11-03T16:10:58.480Z,96275.69
2022-11-03T16:13:01.189Z,96288.88
2022-11-03T16:15:03.823Z,96292.69
2022-11-03T16:17:06.917Z,96284.19
2022-11-03T16:19:10.302Z,96277.44
2022-11-03T16:21:12.901Z,96263.81
2022-11-03T16:23:15.507Z,96264.94
2022-11-03T16:25:21.515Z,96260.16
2022-11-03T16:27:24.260Z,96264.13
2022-11-03T16:29:26.875Z,96255.69
2022-11-03T16:31:29.414Z,96249.16
2022-11-03T16:33:31.953Z,96250.50
2022-11-03T16:35:34.817Z,96252.69
2022-11-03T16:37:37.464Z,96253.19
2022-11-03T16:39:40.052Z,96246.38
2022-11-03T16:41:43.959Z,96255.78
2022-11-03T16:43:47.036Z,96245.69
2022-11-03T16:45:49.587Z,96241.44
2022-11-03T16:47:52.290Z,96243.38
2022-11-03T16:49:55.223Z,96246.81
2022-11-03T16:51:57.804Z,96245.19
2022-11-03T16:54:00.393Z,96246.84
2022-11-03T16:56:02.957Z,96242.06
2022-11-03T16:58:06.855Z,96244.38
2022-11-03T17:00:13.627Z,96246.34
2022-11-03T17:02:16.827Z,96253.72
2022-11-03T17:04:19.630Z,96239.63
2022-11-03T17:06:22.189Z,96243.38
2022-11-03T17:08:52.420Z,96251.72
2022-11-03T17:10:47.400Z,96255.41
2022-11-03T17:12:49.943Z,96249.59
2022-11-03T17:14:56.603Z,96247.41
2022-11-03T17:16:59.602Z,96253.88
2022-11-03T17:19:02.426Z,96253.72
2022-11-03T17:21:05.170Z,96251.28
2022-11-03T17:23:07.824Z,96250.72
2022-11-03T17:25:12.578Z,96241.75
2022-11-03T17:27:18.935Z,96232.25
2022-11-03T17:29:24.671Z,96243.03
2022-11-03T17:31:28.682Z,96231.22
2022-11-03T17:33:31.509Z,96236.59
2022-11-03T17:35:39.586Z,96235.03
2022-11-03T17:37:42.897Z,96233.31
2022-11-03T17:39:45.702Z,96233.31
2022-11-03T17:41:48.301Z,96221.22
2022-11-03T17:43:50.937Z,96214.47
2022-11-03T17:45:53.694Z,96204.88
2022-11-03T17:47:59.136Z,96215.31
2022-11-03T17:50:01.687Z,96204.03
2022-11-03T17:52:04.570Z,96205.72
2022-11-03T17:54:08.086Z,96205.97
2022-11-03T17:56:30.182Z,96191.34
2022-11-03T17:58:35.262Z,96185.38
2022-11-03T18:00:38.589Z,96181.06
2022-11-03T18:02:41.535Z,96182.00
2022-11-03T18:04:45.631Z,96175.94
2022-11-03T18:06:48.225Z,96174.28
2022-11-03T18:08:50.953Z,96174.38
2022-11-03T18:10:56.320Z,96175.38
2022-11-03T18:13:15.698Z,96174.56
2022-11-03T18:15:21.733Z,96183.31
2022-11-03T18:17:24.404Z,96184.16
2022-11-03T18:19:27.066Z,96185.81
2022-11-03T18:21:31.300Z,96191.13
2022-11-03T18:23:35.419Z,96192.84
2022-11-03T18:25:37.961Z,96199.63
2022-11-03T18:27:40.579Z,96207.47
2022-11-03T18:29:43.206Z,96216.81
2022-11-03T18:31:49.710Z,96211.09
2022-11-03T18:33:53.133Z,96219.09
2022-11-03T18:35:56.289Z,96207.56
2022-11-03T18:38:00.621Z,96192.75
2022-11-03T18:40:03.814Z,96193.66
2022-11-03T18:42:09.595Z,96178.75
2022-11-03T18:44:16.565Z,96163.09
2022-11-03T18:46:19.133Z,96152.75
2022-11-03T18:48:21.877Z,96137.06
2022-11-03T18:50:26.744Z,96131.84
2022-11-03T18:52:29.662Z,96136.31
2022-11-03T18:54:35.434Z,96124.22
2022-11-03T18:56:38.371Z,96127.75
2022-11-03T18:58:41.161Z,96124.13
2022-11-03T19:00:43.962Z,96103.34
2022-11-03T19:02:47.404Z,96107.50
2022-11-03T19:04:50.533Z,96101.28
2022-11-03T19:06:53.375Z,96091.75
2022-11-03T19:09:00.282Z,96103.16
2022-11-03T19:11:04.527Z,96122.91
2022-11-03T19:13:09.786Z,96107.25
2022-11-03T19:15:19.036Z,96120.13
2022-11-03T19:17:24.689Z,96120.13
2022-11-03T19:19:28.563Z,96125.44
2022-11-03T19:21:31.176Z,96124.41
2022-11-03T19:23:34.718Z,96115.66
2022-11-03T19:25:39.684Z,96113.88
2022-11-03T19:27:46.285Z,96106.13
2022-11-03T19:29:49.612Z,96099.34
2022-11-03T19:31:53.536Z,96085.34
2022-11-03T19:33:57.533Z,96083.56
2022-11-03T19:36:00.126Z,96074.88
2022-11-03T19:38:06.382Z,96074.03
2022-11-03T19:40:13.835Z,96063.69
2022-11-03T19:42:29.390Z,96055.13
2022-11-03T19:46:42.325Z,96058.78
2022-11-03T19:48:45.189Z,96058.22
2022-11-03T19:50:48.612Z,96072.38
2022-11-03T19:52:51.228Z,96074.13
2022-11-03T19:54:55.298Z,96069.00
2022-11-03T19:56:57.891Z,96069.00
2022-11-03T19:59:03.543Z,96075.19
2022-11-03T20:01:08.922Z,96077.13
2022-11-03T20:03:12.272Z,96067.53
2022-11-03T20:05:15.618Z,96069.41
2022-11-03T20:07:18.243Z,96052.03
2022-11-03T20:09:22.909Z,96053.84
2022-11-03T20:11:25.516Z,96055.59
2022-11-03T20:13:39.951Z,96053.00
2022-11-03T20:15:42.535Z,96045.91
2022-11-03T20:17:47.631Z,96042.56
2022-11-03T20:19:50.337Z,96040.84
2022-11-03T20:21:52.983Z,96046.16
2022-11-03T20:23:55.804Z,96051.69
2022-11-03T20:25:58.731Z,96056.34
2022-11-03T20:28:02.353Z,96050.94
2022-11-03T20:30:06.388Z,96060.53
2022-11-03T20:32:11.274Z,96060.63
2022-11-03T20:34:15.966Z,96059.91
2022-11-03T20:36:20.906Z,96052.22
2022-11-03T20:38:25.906Z,96065.28
2022-11-03T20:40:32.227Z,96078.31
2022-11-03T20:42:34.935Z,96082.63
2022-11-03T20:44:37.474Z,96097.00
2022-11-03T20:46:40.035Z,96093.63
2022-11-03T20:48:42.590Z,96103.41
2022-11-03T20:50:46.682Z,96119.31
2022-11-03T20:52:50.012Z,96097.72
2022-11-03T20:54:52.649Z,96107.50
2022-11-03T20:56:55.198Z,96118.03
2022-11-03T20:58:58.260Z,96110.00
2022-11-03T21:01:01.420Z,96106.84
2022-11-03T21:03:07.965Z,96111.13
2022-11-03T21:05:15.584Z,96111.31
2022-11-03T21:07:19.554Z,96111.41
2022-11-03T21:09:22.992Z,96116.69
2022-11-03T21:11:31.048Z,96123.69
2022-11-03T21:13:33.968Z,96108.78
2022-11-03T21:16:22.506Z,96104.66
2022-11-03T21:18:35.371Z,96100.28
2022-11-03T21:20:38.048Z,96089.88
2022-11-03T21:22:53.891Z,96078.50
2022-11-03T21:24:56.983Z,96089.88
2022-11-03T21:27:00.902Z,96082.03
2022-11-03T21:29:03.480Z,96072.59
2022-11-03T21:31:07.336Z,96082.22
2022-11-03T21:33:10.144Z,96072.78
2022-11-03T21:35:16.096Z,96089.19
2022-11-03T21:37:18.780Z,96084.75
2022-11-03T21:39:22.813Z,96083.97
2022-11-03T21:41:43.151Z,96084.91
2022-11-03T21:44:03.516Z,96087.44
2022-11-03T21:46:08.069Z,96086.59
2022-11-03T21:48:28.472Z,96093.56
2022-11-03T21:50:31.049Z,96091.72
2022-11-03T21:52:33.826Z,96096.03
2022-11-03T21:54:37.979Z,96108.34
2022-11-03T21:56:40.643Z,96101.16
2022-11-03T21:58:43.594Z,96113.88
2022-11-03T22:00:47.067Z,96118.53
2022-11-03T22:02:49.852Z,96130.09
2022-11-03T22:04:54.595Z,96128.31
2022-11-03T22:06:58.398Z,96137.56
2022-11-03T22:09:00.973Z,96141.78
2022-11-03T22:11:23.914Z,96145.22
2022-11-03T22:13:26.502Z,96139.97
2022-11-03T22:15:46.481Z,96157.63
2022-11-03T22:17:49.004Z,96166.00
2022-11-03T22:20:09.244Z,96181.31
2022-11-03T22:22:31.310Z,96198.94
2022-11-03T22:24:51.139Z,96209.22
2022-11-03T22:26:59.755Z,96197.09
2022-11-03T22:29:19.864Z,96221.50
2022-11-03T22:31:43.237Z,96236.72
2022-11-03T22:33:59.731Z,96241.97
2022-11-03T22:36:21.892Z,96231.13
2022-11-03T22:38:45.058Z,96240.47
2022-11-03T22:41:06.406Z,96254.28
2022-11-03T22:43:24.660Z,96253.25
2022-11-03T22:45:44.636Z,96256.31
2022-11-03T22:47:47.251Z,96255.09
2022-11-03T22:49:49.835Z,96240.44
2022-11-03T22:51:52.397Z,96244.91
2022-11-03T22:54:12.041Z,96252.53
2022-11-03T22:56:14.759Z,96240.69
2022-11-03T22:58:18.728Z,96257.94
2022-11-03T23:00:22.479Z,96261.47
2022-11-03T23:02:25.110Z,96257.72
2022-11-03T23:04:27.748Z,96267.53
2022-11-03T23:06:34.860Z,96256.22
2022-11-03T23:08:39.141Z,96265.31
2022-11-03T23:10:41.753Z,96273.16
2022-11-03T23:12:44.292Z,96271.16
2022-11-03T23:15:05.880Z,96263.28
2022-11-03T23:17:08.431Z,96260.94
2022-11-03T23:19:30.220Z,96267.34
2022-11-03T23:21:32.938Z,96273.34
2022-11-03T23:23:53.149Z,96275.22
2022-11-03T23:25:55.727Z,96275.28
2022-11-03T23:27:58.323Z,96277.63
2022-11-03T23:30:03.801Z,96282.47
2022-11-03T23:32:06.584Z,96275.59
2022-11-03T23:34:10.933Z,96280.81
2022-11-03T23:36:15.311Z,96274.78
2022-11-03T23:38:18.035Z,96272.16
2022-11-03T23:40:21.615Z,96277.38
2022-11-03T23:42:24.211Z,96276.13
2022-11-03T23:44:46.745Z,96276.72
2022-11-03T23:47:08.158Z,96279.81
2022-11-03T23:49:10.284Z,96283.00
2022-11-03T23:51:13.256Z,96278.25
2022-11-03T23:53:15.842Z,96266.06
2022-11-03T23:55:18.419Z,96274.88
2022-11-03T23:57:38.566Z,96280.69
2022-11-03T23:59:41.174Z,96286.00
